Arlington, Maryland
Current Conditions -  °F | °C
As of 10:20 AM on Wednesday 22 Oct 2014 (Local Time) from KBWI Reporting Station
Moderate Rain Moderate Rain  
Wind Chill: 12°   Ceiling: 1400
Heat Index: 12°   Visibility: 3mi
Dew Point: 11°   Wind: 10mph
Humidity: 94%   Direction: 340°NNW
Pressure: 29.91"   Gusts: 17mph
Location:  39.3453°N, 76.6832°W
Report Text: KBWI 221420Z 34009G15KT 3SM RA BR BKN014 BKN027 OVC042 12/11 A2991 RMK AO2 P0006
Loading
Personal Weather Stations






























Interactive Weather Map
Tropical Storm Tracking
New forecast layout! Learn more

10-Day Weather Forecast

Advertisements
Track Severe Weather on mobile